sensor_id;sensor_type;location;lat;lon;timestamp;temperature;humidity
1614;DHT22;800;48.824;9.346;2022-12-18T00:01:51;-1.00;46.90
1614;DHT22;800;48.824;9.346;2022-12-18T00:04:21;-1.00;46.90
1614;DHT22;800;48.824;9.346;2022-12-18T00:06:47;-1.10;47.50
1614;DHT22;800;48.824;9.346;2022-12-18T00:09:13;-1.10;47.10
1614;DHT22;800;48.824;9.346;2022-12-18T00:11:39;-1.20;47.30
1614;DHT22;800;48.824;9.346;2022-12-18T00:14:04;-1.20;47.60
1614;DHT22;800;48.824;9.346;2022-12-18T00:16:30;-1.20;47.80
1614;DHT22;800;48.824;9.346;2022-12-18T00:18:58;-1.20;48.00
1614;DHT22;800;48.824;9.346;2022-12-18T00:21:25;-1.20;48.10
1614;DHT22;800;48.824;9.346;2022-12-18T00:23:51;-1.20;47.80
1614;DHT22;800;48.824;9.346;2022-12-18T00:26:20;-1.10;47.60
1614;DHT22;800;48.824;9.346;2022-12-18T00:28:48;-1.10;47.50
1614;DHT22;800;48.824;9.346;2022-12-18T00:31:22;-1.10;47.50
1614;DHT22;800;48.824;9.346;2022-12-18T00:33:48;-1.20;47.40
1614;DHT22;800;48.824;9.346;2022-12-18T00:36:18;-1.20;47.60
1614;DHT22;800;48.824;9.346;2022-12-18T00:38:44;-1.20;47.80
1614;DHT22;800;48.824;9.346;2022-12-18T00:41:10;-1.30;47.50
1614;DHT22;800;48.824;9.346;2022-12-18T00:43:37;-1.30;47.30
1614;DHT22;800;48.824;9.346;2022-12-18T00:46:03;-1.30;47.00
1614;DHT22;800;48.824;9.346;2022-12-18T00:48:29;-1.40;47.20
1614;DHT22;800;48.824;9.346;2022-12-18T00:50:54;-1.40;47.60
1614;DHT22;800;48.824;9.346;2022-12-18T00:53:20;-1.40;47.60
1614;DHT22;800;48.824;9.346;2022-12-18T00:55:46;-1.40;47.70
1614;DHT22;800;48.824;9.346;2022-12-18T00:58:14;-1.50;47.90
1614;DHT22;800;48.824;9.346;2022-12-18T01:00:40;-1.50;48.00
1614;DHT22;800;48.824;9.346;2022-12-18T01:03:06;-1.60;47.60
1614;DHT22;800;48.824;9.346;2022-12-18T01:05:32;-1.60;47.50
1614;DHT22;800;48.824;9.346;2022-12-18T01:07:58;-1.60;47.60
1614;DHT22;800;48.824;9.346;2022-12-18T01:10:25;-1.60;47.80
1614;DHT22;800;48.824;9.346;2022-12-18T01:12:50;-1.50;48.00
1614;DHT22;800;48.824;9.346;2022-12-18T01:15:17;-1.50;47.90
1614;DHT22;800;48.824;9.346;2022-12-18T01:17:43;-1.50;47.60
1614;DHT22;800;48.824;9.346;2022-12-18T01:20:11;-1.50;47.30
1614;DHT22;800;48.824;9.346;2022-12-18T01:22:36;-1.50;47.20
1614;DHT22;800;48.824;9.346;2022-12-18T01:25:03;-1.60;47.10
1614;DHT22;800;48.824;9.346;2022-12-18T01:27:29;-1.60;47.20
1614;DHT22;800;48.824;9.346;2022-12-18T01:29:55;-1.60;47.20
1614;DHT22;800;48.824;9.346;2022-12-18T01:32:20;-1.70;47.30
1614;DHT22;800;48.824;9.346;2022-12-18T01:34:47;-1.70;47.40
1614;DHT22;800;48.824;9.346;2022-12-18T01:37:12;-1.80;47.50
1614;DHT22;800;48.824;9.346;2022-12-18T01:39:38;-1.80;47.50
1614;DHT22;800;48.824;9.346;2022-12-18T01:42:11;-1.80;47.50
1614;DHT22;800;48.824;9.346;2022-12-18T01:49:56;-1.90;48.20
1614;DHT22;800;48.824;9.346;2022-12-18T01:52:24;-1.80;48.10
1614;DHT22;800;48.824;9.346;2022-12-18T01:54:52;-1.80;47.90
1614;DHT22;800;48.824;9.346;2022-12-18T01:57:18;-1.90;47.70
1614;DHT22;800;48.824;9.346;2022-12-18T01:59:47;-1.90;47.70
1614;DHT22;800;48.824;9.346;2022-12-18T02:02:16;-1.90;47.40
1614;DHT22;800;48.824;9.346;2022-12-18T02:04:42;-1.80;47.40
1614;DHT22;800;48.824;9.346;2022-12-18T02:09:59;-1.90;47.60
1614;DHT22;800;48.824;9.346;2022-12-18T02:12:31;-1.90;47.60
1614;DHT22;800;48.824;9.346;2022-12-18T02:15:06;-1.90;47.50
1614;DHT22;800;48.824;9.346;2022-12-18T02:18:27;-1.80;47.60
1614;DHT22;800;48.824;9.346;2022-12-18T02:20:35;-1.90;47.60
1614;DHT22;800;48.824;9.346;2022-12-18T02:28:35;-1.90;48.20
1614;DHT22;800;48.824;9.346;2022-12-18T02:31:05;-1.80;48.30
1614;DHT22;800;48.824;9.346;2022-12-18T02:33:34;-1.90;48.30
1614;DHT22;800;48.824;9.346;2022-12-18T02:36:00;-1.80;48.30
1614;DHT22;800;48.824;9.346;2022-12-18T02:38:28;-1.80;48.00
1614;DHT22;800;48.824;9.346;2022-12-18T02:40:55;-1.80;47.80
1614;DHT22;800;48.824;9.346;2022-12-18T02:43:21;-1.90;47.60
1614;DHT22;800;48.824;9.346;2022-12-18T02:45:52;-1.90;47.70
1614;DHT22;800;48.824;9.346;2022-12-18T02:48:22;-1.90;48.40
1614;DHT22;800;48.824;9.346;2022-12-18T02:51:00;-1.90;47.90
1614;DHT22;800;48.824;9.346;2022-12-18T02:53:34;-1.90;48.10
1614;DHT22;800;48.824;9.346;2022-12-18T02:56:07;-1.80;48.10
1614;DHT22;800;48.824;9.346;2022-12-18T02:59:00;-1.80;48.00
1614;DHT22;800;48.824;9.346;2022-12-18T03:01:43;-1.90;48.20
1614;DHT22;800;48.824;9.346;2022-12-18T03:06:56;-1.90;47.80
1614;DHT22;800;48.824;9.346;2022-12-18T03:09:44;-1.90;47.70
1614;DHT22;800;48.824;9.346;2022-12-18T03:12:27;-2.00;47.60
1614;DHT22;800;48.824;9.346;2022-12-18T03:15:10;-2.00;47.70
1614;DHT22;800;48.824;9.346;2022-12-18T03:17:41;-2.00;47.80
1614;DHT22;800;48.824;9.346;2022-12-18T03:20:17;-1.90;47.80
1614;DHT22;800;48.824;9.346;2022-12-18T03:22:46;-1.90;47.50
1614;DHT22;800;48.824;9.346;2022-12-18T03:25:16;-2.00;47.20
1614;DHT22;800;48.824;9.346;2022-12-18T03:27:49;-2.00;47.50
1614;DHT22;800;48.824;9.346;2022-12-18T03:30:17;-2.00;47.80
1614;DHT22;800;48.824;9.346;2022-12-18T03:33:07;-1.90;48.10
1614;DHT22;800;48.824;9.346;2022-12-18T03:35:37;-1.90;48.20
1614;DHT22;800;48.824;9.346;2022-12-18T03:38:04;-1.90;48.30
1614;DHT22;800;48.824;9.346;2022-12-18T03:43:26;-1.90;48.70
1614;DHT22;800;48.824;9.346;2022-12-18T03:46:02;-2.00;48.90
1614;DHT22;800;48.824;9.346;2022-12-18T03:48:41;-1.90;49.00
1614;DHT22;800;48.824;9.346;2022-12-18T03:51:15;-2.00;49.00
1614;DHT22;800;48.824;9.346;2022-12-18T03:54:01;-1.90;49.00
1614;DHT22;800;48.824;9.346;2022-12-18T03:56:31;-1.80;48.70
1614;DHT22;800;48.824;9.346;2022-12-18T03:58:58;-1.70;48.40
1614;DHT22;800;48.824;9.346;2022-12-18T04:01:32;-1.70;48.20
1614;DHT22;800;48.824;9.346;2022-12-18T04:04:00;-1.70;48.10
1614;DHT22;800;48.824;9.346;2022-12-18T04:06:26;-1.70;48.00
1614;DHT22;800;48.824;9.346;2022-12-18T04:08:53;-1.80;47.90
1614;DHT22;800;48.824;9.346;2022-12-18T04:11:19;-1.80;48.00
1614;DHT22;800;48.824;9.346;2022-12-18T04:13:44;-1.80;48.00
1614;DHT22;800;48.824;9.346;2022-12-18T04:16:10;-1.80;48.30
1614;DHT22;800;48.824;9.346;2022-12-18T04:18:36;-1.80;48.60
1614;DHT22;800;48.824;9.346;2022-12-18T04:21:02;-1.70;48.70
1614;DHT22;800;48.824;9.346;2022-12-18T04:23:28;-1.80;48.70
1614;DHT22;800;48.824;9.346;2022-12-18T04:25:53;-1.80;48.60
1614;DHT22;800;48.824;9.346;2022-12-18T04:28:20;-1.80;48.50
1614;DHT22;800;48.824;9.346;2022-12-18T04:30:45;-1.80;48.40
1614;DHT22;800;48.824;9.346;2022-12-18T04:33:12;-1.80;48.30
1614;DHT22;800;48.824;9.346;2022-12-18T04:35:39;-1.80;48.30
1614;DHT22;800;48.824;9.346;2022-12-18T04:38:06;-1.80;48.20
1614;DHT22;800;48.824;9.346;2022-12-18T04:40:35;-1.90;48.20
1614;DHT22;800;48.824;9.346;2022-12-18T04:43:01;-1.90;48.40
1614;DHT22;800;48.824;9.346;2022-12-18T04:45:26;-1.90;48.60
1614;DHT22;800;48.824;9.346;2022-12-18T04:47:52;-1.90;48.70
1614;DHT22;800;48.824;9.346;2022-12-18T04:50:18;-1.90;48.70
1614;DHT22;800;48.824;9.346;2022-12-18T04:52:43;-1.90;48.70
1614;DHT22;800;48.824;9.346;2022-12-18T04:55:09;-1.80;48.60
1614;DHT22;800;48.824;9.346;2022-12-18T04:57:34;-1.80;48.90
1614;DHT22;800;48.824;9.346;2022-12-18T05:00:00;-1.70;48.30
1614;DHT22;800;48.824;9.346;2022-12-18T05:02:25;-1.70;47.90
1614;DHT22;800;48.824;9.346;2022-12-18T05:04:51;-1.60;48.00
1614;DHT22;800;48.824;9.346;2022-12-18T05:07:17;-1.60;47.80
1614;DHT22;800;48.824;9.346;2022-12-18T05:09:42;-1.60;47.70
1614;DHT22;800;48.824;9.346;2022-12-18T05:12:08;-1.60;47.90
1614;DHT22;800;48.824;9.346;2022-12-18T05:14:33;-1.70;47.80
1614;DHT22;800;48.824;9.346;2022-12-18T05:16:59;-1.80;48.20
1614;DHT22;800;48.824;9.346;2022-12-18T05:19:24;-1.80;48.70
1614;DHT22;800;48.824;9.346;2022-12-18T05:21:50;-1.90;48.80
1614;DHT22;800;48.824;9.346;2022-12-18T05:24:16;-1.90;48.90
1614;DHT22;800;48.824;9.346;2022-12-18T05:26:41;-1.90;48.90
1614;DHT22;800;48.824;9.346;2022-12-18T05:29:07;-1.90;48.80
1614;DHT22;800;48.824;9.346;2022-12-18T05:31:32;-1.80;49.00
1614;DHT22;800;48.824;9.346;2022-12-18T05:33:58;-1.80;48.90
1614;DHT22;800;48.824;9.346;2022-12-18T05:36:24;-1.80;48.80
1614;DHT22;800;48.824;9.346;2022-12-18T05:38:49;-2.00;48.60
1614;DHT22;800;48.824;9.346;2022-12-18T05:41:15;-2.20;48.90
1614;DHT22;800;48.824;9.346;2022-12-18T05:43:41;-2.40;49.30
1614;DHT22;800;48.824;9.346;2022-12-18T05:46:14;-2.30;50.00
1614;DHT22;800;48.824;9.346;2022-12-18T05:48:41;-2.20;50.10
1614;DHT22;800;48.824;9.346;2022-12-18T05:51:10;-2.10;49.80
1614;DHT22;800;48.824;9.346;2022-12-18T05:53:36;-2.00;49.50
1614;DHT22;800;48.824;9.346;2022-12-18T05:56:04;-2.00;49.30
1614;DHT22;800;48.824;9.346;2022-12-18T05:58:31;-1.90;49.30
1614;DHT22;800;48.824;9.346;2022-12-18T06:00:57;-1.90;48.70
1614;DHT22;800;48.824;9.346;2022-12-18T06:03:23;-1.90;48.40
1614;DHT22;800;48.824;9.346;2022-12-18T06:05:49;-1.90;47.70
1614;DHT22;800;48.824;9.346;2022-12-18T06:08:14;-2.00;47.20
1614;DHT22;800;48.824;9.346;2022-12-18T06:10:41;-2.00;47.00
1614;DHT22;800;48.824;9.346;2022-12-18T06:13:07;-2.00;46.80
1614;DHT22;800;48.824;9.346;2022-12-18T06:15:36;-2.00;46.80
1614;DHT22;800;48.824;9.346;2022-12-18T06:18:02;-2.10;47.60
1614;DHT22;800;48.824;9.346;2022-12-18T06:20:28;-2.20;47.60
1614;DHT22;800;48.824;9.346;2022-12-18T06:22:54;-2.20;47.90
1614;DHT22;800;48.824;9.346;2022-12-18T06:25:19;-2.10;48.20
1614;DHT22;800;48.824;9.346;2022-12-18T06:27:47;-2.10;48.20
1614;DHT22;800;48.824;9.346;2022-12-18T06:30:13;-2.00;48.40
1614;DHT22;800;48.824;9.346;2022-12-18T06:32:39;-2.00;48.50
1614;DHT22;800;48.824;9.346;2022-12-18T06:35:05;-2.00;48.90
1614;DHT22;800;48.824;9.346;2022-12-18T06:37:31;-2.00;49.10
1614;DHT22;800;48.824;9.346;2022-12-18T06:39:56;-2.00;49.30
1614;DHT22;800;48.824;9.346;2022-12-18T06:42:23;-2.00;49.40
1614;DHT22;800;48.824;9.346;2022-12-18T06:44:48;-2.00;49.50
1614;DHT22;800;48.824;9.346;2022-12-18T06:47:14;-2.00;49.60
1614;DHT22;800;48.824;9.346;2022-12-18T06:49:39;-2.00;49.50
1614;DHT22;800;48.824;9.346;2022-12-18T06:52:05;-1.90;49.50
1614;DHT22;800;48.824;9.346;2022-12-18T06:54:30;-1.90;49.30
1614;DHT22;800;48.824;9.346;2022-12-18T06:56:56;-2.00;49.10
1614;DHT22;800;48.824;9.346;2022-12-18T06:59:25;-2.00;49.30
1614;DHT22;800;48.824;9.346;2022-12-18T07:01:51;-2.00;49.40
1614;DHT22;800;48.824;9.346;2022-12-18T07:04:16;-1.90;49.40
1614;DHT22;800;48.824;9.346;2022-12-18T07:06:42;-1.90;49.30
1614;DHT22;800;48.824;9.346;2022-12-18T07:09:07;-1.90;49.30
1614;DHT22;800;48.824;9.346;2022-12-18T07:11:33;-2.00;49.20
1614;DHT22;800;48.824;9.346;2022-12-18T07:13:59;-2.00;49.20
1614;DHT22;800;48.824;9.346;2022-12-18T07:16:25;-1.90;49.10
1614;DHT22;800;48.824;9.346;2022-12-18T07:18:51;-1.90;48.90
1614;DHT22;800;48.824;9.346;2022-12-18T07:21:18;-2.00;48.80
1614;DHT22;800;48.824;9.346;2022-12-18T07:23:45;-2.10;49.00
1614;DHT22;800;48.824;9.346;2022-12-18T07:26:14;-2.10;49.20
1614;DHT22;800;48.824;9.346;2022-12-18T07:28:40;-2.10;49.00
1614;DHT22;800;48.824;9.346;2022-12-18T07:31:08;-1.90;49.00
1614;DHT22;800;48.824;9.346;2022-12-18T07:33:34;-1.70;48.70
1614;DHT22;800;48.824;9.346;2022-12-18T07:36:00;-1.50;48.40
1614;DHT22;800;48.824;9.346;2022-12-18T07:38:26;-1.20;48.10
1614;DHT22;800;48.824;9.346;2022-12-18T07:40:51;-0.80;47.90
1614;DHT22;800;48.824;9.346;2022-12-18T07:43:17;-0.50;47.30
1614;DHT22;800;48.824;9.346;2022-12-18T07:45:43;-0.20;46.50
1614;DHT22;800;48.824;9.346;2022-12-18T07:48:09;0.10;45.40
1614;DHT22;800;48.824;9.346;2022-12-18T07:50:35;0.20;44.40
1614;DHT22;800;48.824;9.346;2022-12-18T07:53:00;0.30;44.20
1614;DHT22;800;48.824;9.346;2022-12-18T07:55:29;0.40;44.00
1614;DHT22;800;48.824;9.346;2022-12-18T07:57:55;0.50;43.60
1614;DHT22;800;48.824;9.346;2022-12-18T08:00:21;0.40;43.70
1614;DHT22;800;48.824;9.346;2022-12-18T08:02:46;0.30;43.60
1614;DHT22;800;48.824;9.346;2022-12-18T08:05:12;0.20;43.80
1614;DHT22;800;48.824;9.346;2022-12-18T08:07:38;0.00;44.00
1614;DHT22;800;48.824;9.346;2022-12-18T08:10:05;-0.20;44.60
1614;DHT22;800;48.824;9.346;2022-12-18T08:12:30;-0.30;45.30
1614;DHT22;800;48.824;9.346;2022-12-18T08:14:56;-0.40;46.40
1614;DHT22;800;48.824;9.346;2022-12-18T08:17:21;-0.50;46.70
1614;DHT22;800;48.824;9.346;2022-12-18T08:19:47;-0.60;47.40
1614;DHT22;800;48.824;9.346;2022-12-18T08:22:13;-0.70;47.60
1614;DHT22;800;48.824;9.346;2022-12-18T08:24:38;-0.70;47.90
1614;DHT22;800;48.824;9.346;2022-12-18T08:27:04;-0.90;48.00
1614;DHT22;800;48.824;9.346;2022-12-18T08:29:29;-0.90;48.30
1614;DHT22;800;48.824;9.346;2022-12-18T08:31:55;-0.90;48.30
1614;DHT22;800;48.824;9.346;2022-12-18T08:34:21;-0.80;48.30
1614;DHT22;800;48.824;9.346;2022-12-18T08:36:47;-0.70;48.30
1614;DHT22;800;48.824;9.346;2022-12-18T08:39:12;-0.60;48.50
1614;DHT22;800;48.824;9.346;2022-12-18T08:41:38;-0.60;48.50
1614;DHT22;800;48.824;9.346;2022-12-18T08:44:03;-0.50;48.70
1614;DHT22;800;48.824;9.346;2022-12-18T08:46:47;-0.50;48.70
1614;DHT22;800;48.824;9.346;2022-12-18T08:49:13;-0.40;48.80
1614;DHT22;800;48.824;9.346;2022-12-18T08:51:39;-0.40;48.90
1614;DHT22;800;48.824;9.346;2022-12-18T08:54:05;-0.30;49.30
1614;DHT22;800;48.824;9.346;2022-12-18T08:56:31;-0.20;49.30
1614;DHT22;800;48.824;9.346;2022-12-18T08:58:57;-0.20;49.20
1614;DHT22;800;48.824;9.346;2022-12-18T09:01:23;-0.10;49.50
1614;DHT22;800;48.824;9.346;2022-12-18T09:03:50;0.00;49.60
1614;DHT22;800;48.824;9.346;2022-12-18T09:06:20;0.10;49.40
1614;DHT22;800;48.824;9.346;2022-12-18T09:08:46;0.20;49.00
1614;DHT22;800;48.824;9.346;2022-12-18T09:11:23;0.30;49.20
1614;DHT22;800;48.824;9.346;2022-12-18T09:13:49;0.40;48.70
1614;DHT22;800;48.824;9.346;2022-12-18T09:16:15;0.50;48.60
1614;DHT22;800;48.824;9.346;2022-12-18T09:18:41;0.60;48.70
1614;DHT22;800;48.824;9.346;2022-12-18T09:21:18;0.70;48.90
1614;DHT22;800;48.824;9.346;2022-12-18T09:23:48;0.80;49.00
1614;DHT22;800;48.824;9.346;2022-12-18T09:26:14;0.90;48.90
1614;DHT22;800;48.824;9.346;2022-12-18T09:28:39;1.00;48.60
1614;DHT22;800;48.824;9.346;2022-12-18T09:31:07;1.10;48.40
1614;DHT22;800;48.824;9.346;2022-12-18T09:33:34;1.20;48.20
1614;DHT22;800;48.824;9.346;2022-12-18T09:36:01;1.30;48.10
1614;DHT22;800;48.824;9.346;2022-12-18T09:38:27;1.40;48.20
1614;DHT22;800;48.824;9.346;2022-12-18T09:43:45;1.50;49.40
1614;DHT22;800;48.824;9.346;2022-12-18T09:46:17;1.50;49.50
1614;DHT22;800;48.824;9.346;2022-12-18T09:48:47;1.20;51.40
1614;DHT22;800;48.824;9.346;2022-12-18T09:51:19;1.40;51.40
1614;DHT22;800;48.824;9.346;2022-12-18T09:53:53;1.70;51.00
1614;DHT22;800;48.824;9.346;2022-12-18T09:56:22;2.30;49.60
1614;DHT22;800;48.824;9.346;2022-12-18T09:58:58;2.70;48.40
1614;DHT22;800;48.824;9.346;2022-12-18T10:01:26;2.80;48.60
1614;DHT22;800;48.824;9.346;2022-12-18T10:03:53;2.70;49.30
1614;DHT22;800;48.824;9.346;2022-12-18T10:11:47;2.70;52.10
1614;DHT22;800;48.824;9.346;2022-12-18T10:17:11;2.70;51.90
1614;DHT22;800;48.824;9.346;2022-12-18T10:19:50;2.70;52.80
1614;DHT22;800;48.824;9.346;2022-12-18T10:24:59;2.70;54.30
1614;DHT22;800;48.824;9.346;2022-12-18T10:27:27;3.10;53.90
1614;DHT22;800;48.824;9.346;2022-12-18T10:29:53;3.30;53.20
1614;DHT22;800;48.824;9.346;2022-12-18T10:32:22;3.30;53.10
1614;DHT22;800;48.824;9.346;2022-12-18T10:34:49;3.30;53.20
1614;DHT22;800;48.824;9.346;2022-12-18T10:37:21;3.10;53.10
1614;DHT22;800;48.824;9.346;2022-12-18T10:40:15;3.50;53.60
1614;DHT22;800;48.824;9.346;2022-12-18T10:42:41;3.60;53.40
1614;DHT22;800;48.824;9.346;2022-12-18T10:45:14;3.70;52.60
1614;DHT22;800;48.824;9.346;2022-12-18T10:47:48;3.80;53.30
1614;DHT22;800;48.824;9.346;2022-12-18T10:50:26;3.80;52.70
1614;DHT22;800;48.824;9.346;2022-12-18T10:52:58;4.20;52.60
1614;DHT22;800;48.824;9.346;2022-12-18T10:55:30;4.60;51.90
1614;DHT22;800;48.824;9.346;2022-12-18T10:58:32;5.00;50.80
1614;DHT22;800;48.824;9.346;2022-12-18T11:01:16;5.20;50.40
1614;DHT22;800;48.824;9.346;2022-12-18T11:06:23;5.30;49.10
1614;DHT22;800;48.824;9.346;2022-12-18T11:11:28;5.20;49.20
1614;DHT22;800;48.824;9.346;2022-12-18T11:14:05;5.40;49.70
1614;DHT22;800;48.824;9.346;2022-12-18T11:16:42;5.50;48.90
1614;DHT22;800;48.824;9.346;2022-12-18T11:21:49;4.80;49.60
1614;DHT22;800;48.824;9.346;2022-12-18T11:24:34;4.50;50.60
1614;DHT22;800;48.824;9.346;2022-12-18T11:27:03;4.50;52.00
1614;DHT22;800;48.824;9.346;2022-12-18T11:29:35;4.50;51.90
1614;DHT22;800;48.824;9.346;2022-12-18T11:32:31;4.50;51.90
1614;DHT22;800;48.824;9.346;2022-12-18T11:40:38;4.00;53.20
1614;DHT22;800;48.824;9.346;2022-12-18T11:43:29;4.10;53.50
1614;DHT22;800;48.824;9.346;2022-12-18T11:46:07;4.30;52.60
1614;DHT22;800;48.824;9.346;2022-12-18T11:48:38;4.20;53.40
1614;DHT22;800;48.824;9.346;2022-12-18T11:51:14;4.10;53.10
1614;DHT22;800;48.824;9.346;2022-12-18T11:53:42;3.90;53.40
1614;DHT22;800;48.824;9.346;2022-12-18T11:58:54;4.20;53.10
1614;DHT22;800;48.824;9.346;2022-12-18T12:12:38;4.10;52.90
1614;DHT22;800;48.824;9.346;2022-12-18T12:23:01;4.00;53.80
1614;DHT22;800;48.824;9.346;2022-12-18T12:25:42;4.10;53.60
1614;DHT22;800;48.824;9.346;2022-12-18T12:28:26;4.10;53.30
1614;DHT22;800;48.824;9.346;2022-12-18T12:39:40;4.00;53.20
1614;DHT22;800;48.824;9.346;2022-12-18T12:42:15;4.00;53.20
1614;DHT22;800;48.824;9.346;2022-12-18T12:45:05;4.20;53.40
1614;DHT22;800;48.824;9.346;2022-12-18T12:47:38;4.20;53.20
1614;DHT22;800;48.824;9.346;2022-12-18T12:50:13;4.30;53.50
1614;DHT22;800;48.824;9.346;2022-12-18T12:52:45;4.30;53.00
1614;DHT22;800;48.824;9.346;2022-12-18T12:55:28;4.20;53.10
1614;DHT22;800;48.824;9.346;2022-12-18T13:00:20;4.60;52.70
1614;DHT22;800;48.824;9.346;2022-12-18T13:03:08;4.60;52.50
1614;DHT22;800;48.824;9.346;2022-12-18T13:06:00;4.60;52.40
1614;DHT22;800;48.824;9.346;2022-12-18T13:08:30;4.40;53.40
1614;DHT22;800;48.824;9.346;2022-12-18T13:11:00;4.50;52.40
1614;DHT22;800;48.824;9.346;2022-12-18T13:13:52;4.60;52.20
1614;DHT22;800;48.824;9.346;2022-12-18T13:16:22;4.70;52.40
1614;DHT22;800;48.824;9.346;2022-12-18T13:18:52;4.80;52.00
1614;DHT22;800;48.824;9.346;2022-12-18T13:21:28;4.70;52.40
1614;DHT22;800;48.824;9.346;2022-12-18T13:23:55;4.50;52.30
1614;DHT22;800;48.824;9.346;2022-12-18T13:26:29;4.40;52.80
1614;DHT22;800;48.824;9.346;2022-12-18T13:28:56;4.60;52.60
1614;DHT22;800;48.824;9.346;2022-12-18T13:34:23;4.80;51.80
1614;DHT22;800;48.824;9.346;2022-12-18T13:36:49;4.70;51.60
1614;DHT22;800;48.824;9.346;2022-12-18T13:41:45;4.70;52.30
1614;DHT22;800;48.824;9.346;2022-12-18T13:44:25;4.60;52.30
1614;DHT22;800;48.824;9.346;2022-12-18T13:46:51;4.70;52.40
1614;DHT22;800;48.824;9.346;2022-12-18T13:49:41;4.80;51.90
1614;DHT22;800;48.824;9.346;2022-12-18T13:52:18;4.70;52.00
1614;DHT22;800;48.824;9.346;2022-12-18T13:54:50;4.60;52.30
1614;DHT22;800;48.824;9.346;2022-12-18T13:57:30;4.90;52.20
1614;DHT22;800;48.824;9.346;2022-12-18T13:59:58;5.00;51.60
1614;DHT22;800;48.824;9.346;2022-12-18T14:02:26;4.60;51.30
1614;DHT22;800;48.824;9.346;2022-12-18T14:04:52;4.60;51.70
1614;DHT22;800;48.824;9.346;2022-12-18T14:07:23;4.60;52.30
1614;DHT22;800;48.824;9.346;2022-12-18T14:09:52;4.80;52.00
1614;DHT22;800;48.824;9.346;2022-12-18T14:12:25;5.00;51.90
1614;DHT22;800;48.824;9.346;2022-12-18T14:15:33;4.70;51.40
1614;DHT22;800;48.824;9.346;2022-12-18T14:20:47;4.80;52.00
1614;DHT22;800;48.824;9.346;2022-12-18T14:23:29;4.90;51.60
1614;DHT22;800;48.824;9.346;2022-12-18T14:25:55;5.00;51.40
1614;DHT22;800;48.824;9.346;2022-12-18T14:28:21;5.20;58.60
1614;DHT22;800;48.824;9.346;2022-12-18T14:30:51;6.20;62.90
1614;DHT22;800;48.824;9.346;2022-12-18T14:33:26;6.50;51.00
1614;DHT22;800;48.824;9.346;2022-12-18T14:36:01;6.40;49.00
1614;DHT22;800;48.824;9.346;2022-12-18T14:38:36;6.10;48.60
1614;DHT22;800;48.824;9.346;2022-12-18T14:41:16;5.80;48.90
1614;DHT22;800;48.824;9.346;2022-12-18T14:43:44;5.60;49.40
1614;DHT22;800;48.824;9.346;2022-12-18T14:46:36;5.50;49.80
1614;DHT22;800;48.824;9.346;2022-12-18T14:51:54;5.10;50.30
1614;DHT22;800;48.824;9.346;2022-12-18T14:54:21;4.80;50.50
1614;DHT22;800;48.824;9.346;2022-12-18T14:56:56;4.50;52.10
1614;DHT22;800;48.824;9.346;2022-12-18T14:59:24;4.60;52.00
1614;DHT22;800;48.824;9.346;2022-12-18T15:04:41;4.30;52.30
1614;DHT22;800;48.824;9.346;2022-12-18T15:07:18;4.20;52.20
1614;DHT22;800;48.824;9.346;2022-12-18T15:12:34;4.00;53.00
1614;DHT22;800;48.824;9.346;2022-12-18T15:15:00;3.90;53.50
1614;DHT22;800;48.824;9.346;2022-12-18T15:17:26;3.60;54.10
1614;DHT22;800;48.824;9.346;2022-12-18T15:19:59;3.40;54.30
1614;DHT22;800;48.824;9.346;2022-12-18T15:22:28;3.30;54.60
1614;DHT22;800;48.824;9.346;2022-12-18T15:24:55;3.10;54.80
1614;DHT22;800;48.824;9.346;2022-12-18T15:27:33;2.90;55.10
1614;DHT22;800;48.824;9.346;2022-12-18T15:32:36;2.30;56.70
1614;DHT22;800;48.824;9.346;2022-12-18T15:35:23;2.30;56.90
1614;DHT22;800;48.824;9.346;2022-12-18T15:37:50;2.20;57.60
1614;DHT22;800;48.824;9.346;2022-12-18T15:40:21;2.20;57.20
1614;DHT22;800;48.824;9.346;2022-12-18T15:42:47;2.20;57.70
1614;DHT22;800;48.824;9.346;2022-12-18T15:45:32;2.60;57.10
1614;DHT22;800;48.824;9.346;2022-12-18T15:47:58;2.50;56.80
1614;DHT22;800;48.824;9.346;2022-12-18T15:50:24;2.30;56.90
1614;DHT22;800;48.824;9.346;2022-12-18T15:52:52;2.10;57.20
1614;DHT22;800;48.824;9.346;2022-12-18T15:55:24;2.10;57.10
1614;DHT22;800;48.824;9.346;2022-12-18T15:58:09;2.00;57.30
1614;DHT22;800;48.824;9.346;2022-12-18T16:00:38;2.10;57.70
1614;DHT22;800;48.824;9.346;2022-12-18T16:03:04;2.40;56.90
1614;DHT22;800;48.824;9.346;2022-12-18T16:05:30;2.20;56.80
1614;DHT22;800;48.824;9.346;2022-12-18T16:07:56;2.30;56.80
1614;DHT22;800;48.824;9.346;2022-12-18T16:10:22;2.50;56.80
1614;DHT22;800;48.824;9.346;2022-12-18T16:12:49;2.30;56.40
1614;DHT22;800;48.824;9.346;2022-12-18T16:15:15;2.10;57.00
1614;DHT22;800;48.824;9.346;2022-12-18T16:17:47;2.30;56.90
1614;DHT22;800;48.824;9.346;2022-12-18T16:20:18;2.60;56.60
1614;DHT22;800;48.824;9.346;2022-12-18T16:22:45;2.70;56.10
1614;DHT22;800;48.824;9.346;2022-12-18T16:25:23;2.80;55.40
1614;DHT22;800;48.824;9.346;2022-12-18T16:27:50;2.90;55.10
1614;DHT22;800;48.824;9.346;2022-12-18T16:30:18;3.00;55.10
1614;DHT22;800;48.824;9.346;2022-12-18T16:32:44;3.00;54.90
1614;DHT22;800;48.824;9.346;2022-12-18T16:35:11;2.70;55.00
1614;DHT22;800;48.824;9.346;2022-12-18T16:37:38;2.40;55.50
1614;DHT22;800;48.824;9.346;2022-12-18T16:40:05;2.40;56.20
1614;DHT22;800;48.824;9.346;2022-12-18T16:42:31;2.20;56.30
1614;DHT22;800;48.824;9.346;2022-12-18T16:44:56;2.10;56.70
1614;DHT22;800;48.824;9.346;2022-12-18T16:47:22;2.20;56.90
1614;DHT22;800;48.824;9.346;2022-12-18T16:49:48;2.30;56.30
1614;DHT22;800;48.824;9.346;2022-12-18T16:52:17;2.40;56.30
1614;DHT22;800;48.824;9.346;2022-12-18T16:54:42;2.70;55.70
1614;DHT22;800;48.824;9.346;2022-12-18T16:57:12;2.60;55.20
1614;DHT22;800;48.824;9.346;2022-12-18T16:59:38;2.30;55.80
1614;DHT22;800;48.824;9.346;2022-12-18T17:02:05;2.30;55.80
1614;DHT22;800;48.824;9.346;2022-12-18T17:04:31;2.30;56.00
1614;DHT22;800;48.824;9.346;2022-12-18T17:06:56;2.40;56.00
1614;DHT22;800;48.824;9.346;2022-12-18T17:09:22;2.30;56.10
1614;DHT22;800;48.824;9.346;2022-12-18T17:11:49;2.30;55.90
1614;DHT22;800;48.824;9.346;2022-12-18T17:14:17;2.40;55.90
1614;DHT22;800;48.824;9.346;2022-12-18T17:16:43;2.50;56.10
1614;DHT22;800;48.824;9.346;2022-12-18T17:19:09;2.70;55.80
1614;DHT22;800;48.824;9.346;2022-12-18T17:21:35;2.80;55.20
1614;DHT22;800;48.824;9.346;2022-12-18T17:24:01;2.50;55.30
1614;DHT22;800;48.824;9.346;2022-12-18T17:26:28;2.50;55.70
1614;DHT22;800;48.824;9.346;2022-12-18T17:28:56;2.50;55.30
1614;DHT22;800;48.824;9.346;2022-12-18T17:31:24;2.50;55.30
1614;DHT22;800;48.824;9.346;2022-12-18T17:33:50;2.60;55.10
1614;DHT22;800;48.824;9.346;2022-12-18T17:36:17;2.40;55.10
1614;DHT22;800;48.824;9.346;2022-12-18T17:38:48;2.10;55.50
1614;DHT22;800;48.824;9.346;2022-12-18T17:41:14;1.80;56.50
1614;DHT22;800;48.824;9.346;2022-12-18T17:43:40;1.80;57.00
1614;DHT22;800;48.824;9.346;2022-12-18T17:46:12;2.10;56.90
1614;DHT22;800;48.824;9.346;2022-12-18T17:48:38;2.10;56.50
1614;DHT22;800;48.824;9.346;2022-12-18T17:51:05;2.00;56.90
1614;DHT22;800;48.824;9.346;2022-12-18T17:53:31;2.00;56.60
1614;DHT22;800;48.824;9.346;2022-12-18T17:55:57;2.20;56.70
1614;DHT22;800;48.824;9.346;2022-12-18T17:58:25;2.20;56.60
1614;DHT22;800;48.824;9.346;2022-12-18T18:00:50;1.90;56.10
1614;DHT22;800;48.824;9.346;2022-12-18T18:03:16;1.60;57.20
1614;DHT22;800;48.824;9.346;2022-12-18T18:05:42;1.70;57.50
1614;DHT22;800;48.824;9.346;2022-12-18T18:08:07;1.80;57.50
1614;DHT22;800;48.824;9.346;2022-12-18T18:10:37;1.90;57.40
1614;DHT22;800;48.824;9.346;2022-12-18T18:13:05;2.00;56.90
1614;DHT22;800;48.824;9.346;2022-12-18T18:15:56;1.90;56.80
1614;DHT22;800;48.824;9.346;2022-12-18T18:18:22;1.90;57.40
1614;DHT22;800;48.824;9.346;2022-12-18T18:20:47;2.00;57.10